Terminal Aerodrome Forecast
Issued by NWS Jackson, KY

Home | Current Version | Previous Version | Text Only | Print | Product List | Glossary On
Versions: 1 2 3 4 5 6 7 8 9 10 11 12 13 14
930
FTUS43 KJKL 221120
TAFJKL
TAF
KJKL 221120Z 2212/2312 VRB01KT P6SM SCT015 BKN110
     FM221600 VRB03KT P6SM VCSH SCT030 BKN120
     FM222300 VRB01KT P6SM VCTS SCT025CB BKN150
     FM230300 00000KT 3SM -SHRA BR SCT008 BKN250
     FM230500 00000KT 1SM BR SCT008=

USA.gov is the U.S. government's official web portal to all federal, state and local government web resources and services.